MEA427 OMDB-OLBA
Flight info
| Callsign | MEA427 |
|---|---|
| Flight time | 4h 38m |
| Altitude | 30000 |
| Route | ANVIX R401 GIDIS G783 RIGIL M628 PEKEM/N0447F280 M628 KATIT/N0463F300 DCT ITRUX/N0478F320 Y511 NAGBO DCT PMA DCT WEJ L677 KAPIT/N0467F340 L677 CVO A16 MELDO/N0464F330 DCT IMPIP DCT LAKTO/N0460F340 N71 STEPA L78 DESPO M31 KUKLA |
| Aircraft | A21N/M-SDE2E3FGHIRWXY/LB1 |
Departure
| Time | 2026-04-25 18:13 |
|---|---|
| Airport | Dubai International Airport (OMDB) |
Arrival
| Time | 2026-04-25 22:52 |
|---|---|
| Airport | Beirut Rafic Hariri International Airport (OLBA) |
| Time | Latitude | Longitude | Altitude | Speed | Heading |
|---|---|---|---|---|---|
| 2026-04-25 17:31 | 25.25842 | 55.34568 | 27 ft | 0 kts | 211° |
| 2026-04-25 18:00 | 25.25843 | 55.34568 | 27 ft | 0 kts | 211° |
| 2026-04-25 18:00 | 25.25845 | 55.34569 | 27 ft | 0 kts | 211° |
| 2026-04-25 18:01 | 25.25847 | 55.34571 | 27 ft | 0 kts | 211° |
| 2026-04-25 18:01 | 25.25859 | 55.34579 | 27 ft | 1 kts | 211° |
| 2026-04-25 18:01 | 25.25865 | 55.34583 | 27 ft | 1 kts | 211° |
| 2026-04-25 18:01 | 25.25872 | 55.34588 | 27 ft | 1 kts | 211° |
| 2026-04-25 18:02 | 25.25893 | 55.34602 | 14 ft | 3 kts | 210° |
| 2026-04-25 18:02 | 25.25915 | 55.34612 | 31 ft | 3 kts | 194° |
| 2026-04-25 18:02 | 25.25933 | 55.34615 | 28 ft | 2 kts | 178° |
| 2026-04-25 18:02 | 25.25945 | 55.34614 | 28 ft | 2 kts | 166° |
| 2026-04-25 18:03 | 25.25938 | 55.34616 | 27 ft | 0 kts | 162° |
| 2026-04-25 18:03 | 25.25936 | 55.34617 | 27 ft | 0 kts | 162° |
| 2026-04-25 18:03 | 25.25934 | 55.34618 | 27 ft | 0 kts | 162° |
| 2026-04-25 18:03 | 25.25933 | 55.34618 | 27 ft | 0 kts | 162° |
| 2026-04-25 18:06 | 25.25923 | 55.34621 | 27 ft | 4 kts | 162° |
| 2026-04-25 18:06 | 25.25899 | 55.34659 | 27 ft | 9 kts | 110° |
| 2026-04-25 18:06 | 25.25866 | 55.34738 | 27 ft | 14 kts | 118° |
| 2026-04-25 18:06 | 25.25808 | 55.34845 | 27 ft | 18 kts | 121° |
| 2026-04-25 18:07 | 25.25733 | 55.34978 | 27 ft | 21 kts | 121° |
| 2026-04-25 18:07 | 25.25700 | 55.35041 | 27 ft | 1 kts | 118° |
| 2026-04-25 18:07 | 25.25688 | 55.35066 | 27 ft | 6 kts | 118° |
| 2026-04-25 18:07 | 25.25672 | 55.35128 | 27 ft | 11 kts | 75° |
| 2026-04-25 18:08 | 25.25743 | 55.35194 | 27 ft | 16 kts | 28° |
| 2026-04-25 18:08 | 25.25848 | 55.35268 | 27 ft | 20 kts | 29° |
| 2026-04-25 18:08 | 25.25977 | 55.35366 | 27 ft | 25 kts | 54° |
| 2026-04-25 18:08 | 25.25988 | 55.35560 | 27 ft | 29 kts | 125° |
| 2026-04-25 18:09 | 25.25895 | 55.35728 | 27 ft | 27 kts | 117° |
| 2026-04-25 18:09 | 25.25789 | 55.35916 | 28 ft | 31 kts | 129° |
| 2026-04-25 18:09 | 25.25692 | 55.36085 | 28 ft | 26 kts | 121° |
| 2026-04-25 18:09 | 25.25659 | 55.36143 | 28 ft | 27 kts | 122° |
| 2026-04-25 18:10 | 25.25474 | 55.36475 | 28 ft | 34 kts | 123° |
| 2026-04-25 18:10 | 25.25337 | 55.36704 | 27 ft | 38 kts | 118° |
| 2026-04-25 18:10 | 25.25218 | 55.36933 | 27 ft | 32 kts | 121° |
| 2026-04-25 18:10 | 25.25097 | 55.37145 | 29 ft | 28 kts | 121° |
| 2026-04-25 18:11 | 25.24984 | 55.37341 | 29 ft | 32 kts | 121° |
| 2026-04-25 18:11 | 25.24887 | 55.37519 | 29 ft | 27 kts | 122° |
| 2026-04-25 18:11 | 25.24777 | 55.37707 | 28 ft | 31 kts | 122° |
| 2026-04-25 18:11 | 25.24685 | 55.37885 | 28 ft | 21 kts | 115° |
| 2026-04-25 18:12 | 25.24726 | 55.37997 | 29 ft | 8 kts | 30° |
| 2026-04-25 18:12 | 25.24792 | 55.38026 | 30 ft | 13 kts | 346° |
| 2026-04-25 18:12 | 25.24858 | 55.37933 | 31 ft | 18 kts | 301° |
| 2026-04-25 18:12 | 25.25025 | 55.37634 | 32 ft | 85 kts | 301° |
| 2026-04-25 18:13 | 25.25466 | 55.36839 | 33 ft | 153 kts | 301° |
| 2026-04-25 18:13 | 25.26020 | 55.35814 | 613 ft | 156 kts | 300° |
| 2026-04-25 18:13 | 25.26577 | 55.34757 | 1252 ft | 161 kts | 301° |
| 2026-04-25 18:14 | 25.27910 | 55.32393 | 2282 ft | 198 kts | 302° |
| 2026-04-25 18:14 | 25.28667 | 55.31037 | 2811 ft | 216 kts | 300° |
| 2026-04-25 18:14 | 25.29177 | 55.29426 | 3468 ft | 230 kts | 276° |
| 2026-04-25 18:14 | 25.28910 | 55.27674 | 4274 ft | 237 kts | 250° |
| 2026-04-25 18:15 | 25.28200 | 55.26020 | 5122 ft | 240 kts | 246° |
| 2026-04-25 18:15 | 25.27450 | 55.24358 | 5979 ft | 243 kts | 246° |
| 2026-04-25 18:15 | 25.26704 | 55.22670 | 6793 ft | 246 kts | 246° |
| 2026-04-25 18:15 | 25.25972 | 55.20987 | 7604 ft | 248 kts | 246° |
| 2026-04-25 18:16 | 25.25212 | 55.19240 | 8405 ft | 251 kts | 244° |
| 2026-04-25 18:16 | 25.24204 | 55.17698 | 9218 ft | 255 kts | 223° |
| 2026-04-25 18:16 | 25.20784 | 55.16655 | 10610 ft | 272 kts | 173° |
| 2026-04-25 18:17 | 25.18985 | 55.17303 | 11373 ft | 277 kts | 150° |
| 2026-04-25 18:17 | 25.17536 | 55.18741 | 12037 ft | 289 kts | 127° |
| 2026-04-25 18:17 | 25.16529 | 55.20726 | 12616 ft | 304 kts | 117° |
| 2026-04-25 18:17 | 25.15594 | 55.22862 | 13282 ft | 312 kts | 117° |
| 2026-04-25 18:18 | 25.14622 | 55.25026 | 14030 ft | 317 kts | 119° |
| 2026-04-25 18:18 | 25.13609 | 55.27206 | 14738 ft | 321 kts | 119° |
| 2026-04-25 18:18 | 25.12568 | 55.29408 | 15445 ft | 326 kts | 120° |
| 2026-04-25 18:18 | 25.11477 | 55.31610 | 16003 ft | 335 kts | 126° |
| 2026-04-25 18:19 | 25.09810 | 55.33488 | 16315 ft | 346 kts | 148° |
| 2026-04-25 18:19 | 25.07589 | 55.34608 | 16591 ft | 360 kts | 165° |
| 2026-04-25 18:19 | 25.05118 | 55.35364 | 16847 ft | 377 kts | 167° |
| 2026-04-25 18:19 | 25.02528 | 55.36129 | 17105 ft | 394 kts | 167° |
| 2026-04-25 18:20 | 24.99830 | 55.36957 | 17331 ft | 410 kts | 166° |
| 2026-04-25 18:20 | 24.97072 | 55.37829 | 17542 ft | 425 kts | 166° |
| 2026-04-25 18:20 | 24.94193 | 55.38754 | 17793 ft | 437 kts | 165° |
| 2026-04-25 18:20 | 24.91257 | 55.39705 | 18249 ft | 442 kts | 165° |
| 2026-04-25 18:21 | 24.88289 | 55.40666 | 18721 ft | 446 kts | 166° |
| 2026-04-25 18:21 | 24.85293 | 55.41631 | 19189 ft | 449 kts | 166° |
| 2026-04-25 18:21 | 24.82294 | 55.42595 | 19660 ft | 452 kts | 166° |
| 2026-04-25 18:21 | 24.79254 | 55.43570 | 20104 ft | 455 kts | 166° |
| 2026-04-25 18:22 | 24.76195 | 55.44552 | 20556 ft | 459 kts | 166° |
| 2026-04-25 18:22 | 24.75161 | 55.44884 | 20705 ft | 460 kts | 166° |
| 2026-04-25 18:22 | 24.70020 | 55.46536 | 21531 ft | 466 kts | 166° |
| 2026-04-25 18:22 | 24.66886 | 55.47542 | 22066 ft | 470 kts | 166° |
| 2026-04-25 18:23 | 24.63728 | 55.48556 | 22590 ft | 474 kts | 166° |
| 2026-04-25 18:23 | 24.60559 | 55.49574 | 23101 ft | 477 kts | 166° |
| 2026-04-25 18:23 | 24.57362 | 55.50599 | 23571 ft | 481 kts | 166° |
| 2026-04-25 18:23 | 24.54134 | 55.51634 | 23961 ft | 484 kts | 166° |
| 2026-04-25 18:24 | 24.50892 | 55.52673 | 24346 ft | 487 kts | 166° |
| 2026-04-25 18:24 | 24.47646 | 55.53712 | 24847 ft | 486 kts | 166° |
| 2026-04-25 18:24 | 24.44400 | 55.54751 | 25391 ft | 484 kts | 167° |
| 2026-04-25 18:24 | 24.41163 | 55.55785 | 25912 ft | 483 kts | 167° |
| 2026-04-25 18:25 | 24.37931 | 55.56818 | 26460 ft | 482 kts | 167° |
| 2026-04-25 18:25 | 24.34758 | 55.57833 | 26995 ft | 481 kts | 167° |
| 2026-04-25 18:25 | 24.31551 | 55.58856 | 27571 ft | 479 kts | 167° |
| 2026-04-25 18:25 | 24.28315 | 55.59700 | 28115 ft | 474 kts | 174° |
| 2026-04-25 18:26 | 24.25047 | 55.59918 | 28604 ft | 469 kts | 185° |
| 2026-04-25 18:26 | 24.21830 | 55.59444 | 29122 ft | 463 kts | 196° |
| 2026-04-25 18:26 | 24.19779 | 55.58868 | 29469 ft | 461 kts | 198° |
| 2026-04-25 18:26 | 24.15639 | 55.57591 | 29949 ft | 460 kts | 199° |
| 2026-04-25 18:27 | 24.12591 | 55.56651 | 30001 ft | 462 kts | 199° |
| 2026-04-25 18:27 | 24.06392 | 55.54784 | 29992 ft | 462 kts | 198° |
| 2026-04-25 18:28 | 24.00185 | 55.52931 | 29970 ft | 462 kts | 198° |
| 2026-04-25 18:28 | 23.95020 | 55.51392 | 29954 ft | 463 kts | 199° |
| 2026-04-25 18:29 | 23.85691 | 55.48627 | 29951 ft | 463 kts | 199° |
| 2026-04-25 18:30 | 23.73255 | 55.44935 | 29949 ft | 462 kts | 199° |
| 2026-04-25 18:30 | 23.67030 | 55.43089 | 29947 ft | 465 kts | 199° |
| 2026-04-25 18:31 | 23.60773 | 55.41233 | 29950 ft | 466 kts | 199° |
| 2026-04-25 18:31 | 23.54535 | 55.39392 | 29943 ft | 466 kts | 199° |
| 2026-04-25 18:32 | 23.48276 | 55.37540 | 29936 ft | 466 kts | 199° |
| 2026-04-25 18:32 | 23.42015 | 55.35686 | 29924 ft | 467 kts | 199° |
| 2026-04-25 18:33 | 23.35718 | 55.33823 | 29930 ft | 470 kts | 199° |
| 2026-04-25 18:33 | 23.29399 | 55.31959 | 29929 ft | 470 kts | 199° |
| 2026-04-25 18:34 | 23.23078 | 55.30097 | 29917 ft | 470 kts | 199° |
| 2026-04-25 18:34 | 23.16796 | 55.28248 | 29919 ft | 470 kts | 199° |
| 2026-04-25 18:35 | 23.10538 | 55.26177 | 29921 ft | 468 kts | 206° |
| 2026-04-25 18:35 | 23.07705 | 55.24491 | 29924 ft | 462 kts | 217° |
| 2026-04-25 18:35 | 23.05242 | 55.22271 | 29925 ft | 458 kts | 228° |
| 2026-04-25 18:36 | 23.01739 | 55.16614 | 29916 ft | 451 kts | 248° |
| 2026-04-25 18:36 | 23.00110 | 55.10079 | 29919 ft | 449 kts | 259° |
| 2026-04-25 18:37 | 22.98846 | 55.03440 | 29915 ft | 449 kts | 259° |
| 2026-04-25 18:37 | 22.97543 | 54.96830 | 29912 ft | 446 kts | 259° |
| 2026-04-25 18:38 | 22.96239 | 54.90247 | 29911 ft | 446 kts | 259° |
| 2026-04-25 18:38 | 22.94938 | 54.83664 | 29905 ft | 446 kts | 259° |
| 2026-04-25 18:39 | 22.93637 | 54.77115 | 29920 ft | 446 kts | 259° |
| 2026-04-25 18:39 | 22.92325 | 54.70511 | 29912 ft | 448 kts | 259° |
| 2026-04-25 18:40 | 22.91009 | 54.63905 | 29906 ft | 448 kts | 258° |
| 2026-04-25 18:40 | 22.89687 | 54.57297 | 29907 ft | 448 kts | 258° |
| 2026-04-25 18:41 | 22.88364 | 54.50694 | 29914 ft | 448 kts | 258° |
| 2026-04-25 18:41 | 22.87038 | 54.44113 | 29915 ft | 450 kts | 258° |
| 2026-04-25 18:42 | 22.85928 | 54.38603 | 29917 ft | 450 kts | 258° |
| 2026-04-25 18:42 | 22.84364 | 54.30852 | 29919 ft | 450 kts | 258° |
| 2026-04-25 18:43 | 22.83021 | 54.24218 | 29919 ft | 450 kts | 257° |
| 2026-04-25 18:43 | 22.81678 | 54.17599 | 29917 ft | 450 kts | 258° |
| 2026-04-25 18:44 | 22.80342 | 54.11026 | 29918 ft | 449 kts | 257° |
| 2026-04-25 18:44 | 22.78992 | 54.04410 | 29917 ft | 449 kts | 257° |
| 2026-04-25 18:45 | 22.78055 | 53.97723 | 29919 ft | 450 kts | 268° |
| 2026-04-25 18:45 | 22.78249 | 53.90940 | 29916 ft | 450 kts | 271° |
| 2026-04-25 18:46 | 22.78489 | 53.84169 | 29929 ft | 447 kts | 270° |
| 2026-04-25 18:46 | 22.78718 | 53.77436 | 29919 ft | 447 kts | 270° |
| 2026-04-25 18:47 | 22.78938 | 53.70678 | 29917 ft | 451 kts | 270° |
| 2026-04-25 18:47 | 22.79157 | 53.63879 | 29913 ft | 452 kts | 270° |
| 2026-04-25 18:48 | 22.79372 | 53.57070 | 29921 ft | 452 kts | 270° |
| 2026-04-25 18:48 | 22.79588 | 53.50267 | 29921 ft | 452 kts | 270° |
| 2026-04-25 18:49 | 22.79798 | 53.43460 | 29927 ft | 452 kts | 270° |
| 2026-04-25 18:49 | 22.80005 | 53.36688 | 29930 ft | 452 kts | 270° |
| 2026-04-25 18:50 | 22.80209 | 53.29877 | 29923 ft | 452 kts | 270° |
| 2026-04-25 18:50 | 22.80413 | 53.23065 | 29921 ft | 452 kts | 270° |
| 2026-04-25 18:51 | 22.80576 | 53.17403 | 29924 ft | 452 kts | 270° |
| 2026-04-25 18:51 | 22.80805 | 53.09443 | 29921 ft | 452 kts | 270° |
| 2026-04-25 18:52 | 22.80997 | 53.02635 | 29926 ft | 452 kts | 270° |
| 2026-04-25 18:52 | 22.81190 | 52.95868 | 29922 ft | 451 kts | 270° |
| 2026-04-25 18:53 | 22.81374 | 52.89077 | 29920 ft | 451 kts | 270° |
| 2026-04-25 18:53 | 22.81556 | 52.82274 | 29924 ft | 451 kts | 270° |
| 2026-04-25 18:54 | 22.81832 | 52.72097 | 29934 ft | 449 kts | 270° |
| 2026-04-25 18:55 | 22.82005 | 52.65364 | 29923 ft | 449 kts | 270° |
| 2026-04-25 18:55 | 22.82180 | 52.58549 | 29922 ft | 449 kts | 270° |
| 2026-04-25 18:56 | 22.82346 | 52.51820 | 29938 ft | 449 kts | 270° |
| 2026-04-25 18:56 | 22.83084 | 52.45115 | 29935 ft | 449 kts | 278° |
| 2026-04-25 18:57 | 22.84278 | 52.38473 | 29928 ft | 449 kts | 278° |
| 2026-04-25 18:57 | 22.85466 | 52.31805 | 29931 ft | 449 kts | 278° |
| 2026-04-25 18:58 | 22.86635 | 52.25190 | 29935 ft | 448 kts | 278° |
| 2026-04-25 18:58 | 22.88379 | 52.15232 | 29934 ft | 448 kts | 278° |
| 2026-04-25 18:59 | 22.90721 | 52.01954 | 29935 ft | 446 kts | 278° |
| 2026-04-25 19:00 | 22.92436 | 51.92079 | 29934 ft | 446 kts | 278° |
| 2026-04-25 19:01 | 22.94162 | 51.82162 | 29937 ft | 446 kts | 278° |
| 2026-04-25 19:01 | 22.95296 | 51.75555 | 29938 ft | 444 kts | 278° |
| 2026-04-25 19:02 | 22.97003 | 51.65679 | 29936 ft | 444 kts | 278° |
| 2026-04-25 19:03 | 22.98327 | 51.58015 | 29942 ft | 444 kts | 278° |
| 2026-04-25 19:03 | 22.99836 | 51.49202 | 29941 ft | 444 kts | 278° |
| 2026-04-25 19:04 | 23.01511 | 51.39343 | 29939 ft | 444 kts | 277° |
| 2026-04-25 19:05 | 23.03755 | 51.26149 | 29941 ft | 444 kts | 278° |
| 2026-04-25 19:06 | 23.04859 | 51.19629 | 29934 ft | 443 kts | 278° |
| 2026-04-25 19:06 | 23.06526 | 51.09730 | 29947 ft | 442 kts | 277° |
| 2026-04-25 19:07 | 23.08189 | 50.99862 | 29939 ft | 443 kts | 277° |
| 2026-04-25 19:08 | 23.09837 | 50.90040 | 29937 ft | 442 kts | 277° |
| 2026-04-25 19:09 | 23.11663 | 50.79068 | 29938 ft | 441 kts | 277° |
| 2026-04-25 19:10 | 23.13659 | 50.67058 | 29938 ft | 441 kts | 277° |
| 2026-04-25 19:10 | 23.14742 | 50.60505 | 29938 ft | 440 kts | 277° |
| 2026-04-25 19:11 | 23.15822 | 50.53959 | 29939 ft | 440 kts | 277° |
| 2026-04-25 19:11 | 23.16891 | 50.47455 | 29927 ft | 440 kts | 277° |
| 2026-04-25 19:12 | 23.17967 | 50.40902 | 29927 ft | 440 kts | 277° |
| 2026-04-25 19:12 | 23.18860 | 50.35460 | 29934 ft | 439 kts | 277° |
| 2026-04-25 19:13 | 23.20101 | 50.27843 | 29934 ft | 440 kts | 277° |
| 2026-04-25 19:13 | 23.20987 | 50.22364 | 29935 ft | 440 kts | 277° |
| 2026-04-25 19:14 | 23.22050 | 50.15820 | 29939 ft | 438 kts | 278° |
| 2026-04-25 19:14 | 23.23110 | 50.09279 | 29931 ft | 439 kts | 278° |
| 2026-04-25 19:15 | 23.24161 | 50.02783 | 29938 ft | 438 kts | 278° |
| 2026-04-25 19:15 | 23.25213 | 49.96252 | 29935 ft | 438 kts | 278° |
| 2026-04-25 19:16 | 23.26261 | 49.89712 | 29933 ft | 437 kts | 278° |
| 2026-04-25 19:16 | 23.27297 | 49.83242 | 29929 ft | 437 kts | 278° |
| 2026-04-25 19:17 | 23.28340 | 49.76724 | 29929 ft | 437 kts | 278° |
| 2026-04-25 19:17 | 23.29380 | 49.70200 | 29928 ft | 437 kts | 278° |
| 2026-04-25 19:18 | 23.30415 | 49.63682 | 29927 ft | 437 kts | 278° |
| 2026-04-25 19:18 | 23.31442 | 49.57204 | 29927 ft | 437 kts | 278° |
| 2026-04-25 19:19 | 23.32473 | 49.50673 | 29936 ft | 436 kts | 278° |
| 2026-04-25 19:19 | 23.33495 | 49.44168 | 29929 ft | 436 kts | 278° |
| 2026-04-25 19:20 | 23.34348 | 49.38747 | 29922 ft | 436 kts | 278° |
| 2026-04-25 19:20 | 23.35541 | 49.31133 | 29929 ft | 436 kts | 278° |
| 2026-04-25 19:21 | 23.36550 | 49.24673 | 29920 ft | 436 kts | 278° |
| 2026-04-25 19:21 | 23.38068 | 49.14912 | 29919 ft | 436 kts | 278° |
| 2026-04-25 19:22 | 23.39074 | 49.08404 | 29926 ft | 435 kts | 278° |
| 2026-04-25 19:23 | 23.40582 | 48.98678 | 29932 ft | 435 kts | 278° |
| 2026-04-25 19:23 | 23.42082 | 48.88922 | 29928 ft | 435 kts | 278° |
| 2026-04-25 19:24 | 23.43081 | 48.82425 | 29921 ft | 435 kts | 278° |
| 2026-04-25 19:25 | 23.45059 | 48.69408 | 29927 ft | 435 kts | 278° |
| 2026-04-25 19:25 | 23.46048 | 48.62901 | 29932 ft | 436 kts | 278° |
| 2026-04-25 19:26 | 23.47034 | 48.56421 | 29933 ft | 436 kts | 278° |
| 2026-04-25 19:26 | 23.48019 | 48.49894 | 29940 ft | 436 kts | 278° |
| 2026-04-25 19:27 | 23.48840 | 48.44444 | 29928 ft | 435 kts | 278° |
| 2026-04-25 19:27 | 23.49984 | 48.36866 | 29938 ft | 436 kts | 278° |
| 2026-04-25 19:28 | 23.50963 | 48.30334 | 29927 ft | 436 kts | 278° |
| 2026-04-25 19:28 | 23.51935 | 48.23802 | 29928 ft | 437 kts | 278° |
| 2026-04-25 19:29 | 23.52903 | 48.17273 | 29951 ft | 437 kts | 278° |
| 2026-04-25 19:29 | 23.53874 | 48.10735 | 29940 ft | 437 kts | 278° |
| 2026-04-25 19:30 | 23.54853 | 48.04199 | 29936 ft | 437 kts | 278° |
| 2026-04-25 19:30 | 23.55811 | 47.97694 | 29948 ft | 437 kts | 278° |
| 2026-04-25 19:31 | 23.56763 | 47.91156 | 29950 ft | 437 kts | 278° |
| 2026-04-25 19:31 | 23.57715 | 47.84598 | 29953 ft | 437 kts | 278° |
| 2026-04-25 19:32 | 23.58678 | 47.78053 | 29955 ft | 437 kts | 278° |
| 2026-04-25 19:32 | 23.59471 | 47.72597 | 29957 ft | 438 kts | 278° |
| 2026-04-25 19:33 | 23.60592 | 47.64963 | 29960 ft | 437 kts | 278° |
| 2026-04-25 19:33 | 23.61550 | 47.58401 | 29964 ft | 438 kts | 278° |
| 2026-04-25 19:34 | 23.62492 | 47.51848 | 29979 ft | 438 kts | 278° |
| 2026-04-25 19:34 | 23.63417 | 47.45329 | 29968 ft | 438 kts | 278° |
| 2026-04-25 19:35 | 23.64362 | 47.38763 | 29973 ft | 438 kts | 278° |
| 2026-04-25 19:35 | 23.65309 | 47.32208 | 29971 ft | 437 kts | 278° |
| 2026-04-25 19:36 | 23.66242 | 47.25656 | 29972 ft | 437 kts | 278° |
| 2026-04-25 19:36 | 23.67179 | 47.19111 | 29979 ft | 437 kts | 278° |
| 2026-04-25 19:37 | 23.68094 | 47.12565 | 29982 ft | 435 kts | 278° |
| 2026-04-25 19:37 | 23.68992 | 47.06076 | 29979 ft | 435 kts | 278° |
| 2026-04-25 19:38 | 23.69913 | 46.99539 | 29998 ft | 436 kts | 278° |
| 2026-04-25 19:38 | 23.70829 | 46.93006 | 29999 ft | 435 kts | 278° |
| 2026-04-25 19:39 | 23.71745 | 46.86464 | 29996 ft | 435 kts | 278° |
| 2026-04-25 19:39 | 23.72666 | 46.79948 | 30003 ft | 435 kts | 278° |
| 2026-04-25 19:40 | 23.73575 | 46.73422 | 30002 ft | 435 kts | 278° |
| 2026-04-25 19:40 | 23.74475 | 46.66922 | 30001 ft | 435 kts | 278° |
| 2026-04-25 19:41 | 23.75389 | 46.60397 | 30009 ft | 435 kts | 278° |
| 2026-04-25 19:41 | 23.76006 | 46.56030 | 30008 ft | 435 kts | 278° |
| 2026-04-25 19:42 | 23.77196 | 46.47335 | 30009 ft | 434 kts | 278° |
| 2026-04-25 19:42 | 23.78083 | 46.40870 | 30012 ft | 433 kts | 278° |
| 2026-04-25 19:43 | 23.78980 | 46.34359 | 30015 ft | 433 kts | 278° |
| 2026-04-25 19:43 | 23.79857 | 46.27855 | 30000 ft | 433 kts | 278° |
| 2026-04-25 19:44 | 23.80752 | 46.21343 | 29998 ft | 433 kts | 278° |
| 2026-04-25 19:44 | 23.81636 | 46.14833 | 29992 ft | 431 kts | 278° |
| 2026-04-25 19:45 | 23.82502 | 46.08400 | 29988 ft | 431 kts | 278° |
| 2026-04-25 19:45 | 23.83363 | 46.01949 | 29991 ft | 431 kts | 278° |
| 2026-04-25 19:46 | 23.84239 | 45.95452 | 29984 ft | 432 kts | 278° |
| 2026-04-25 19:46 | 23.85104 | 45.88964 | 29978 ft | 431 kts | 278° |
| 2026-04-25 19:47 | 23.85961 | 45.82492 | 29984 ft | 431 kts | 278° |
| 2026-04-25 19:47 | 23.86818 | 45.76023 | 29979 ft | 430 kts | 278° |
| 2026-04-25 19:48 | 23.87669 | 45.69570 | 29977 ft | 429 kts | 278° |
| 2026-04-25 19:48 | 23.88515 | 45.63149 | 29978 ft | 429 kts | 278° |
| 2026-04-25 19:49 | 23.89097 | 45.58834 | 29992 ft | 429 kts | 278° |
| 2026-04-25 19:49 | 23.90219 | 45.50261 | 29977 ft | 428 kts | 278° |
| 2026-04-25 19:50 | 23.91465 | 45.40633 | 29978 ft | 428 kts | 278° |
| 2026-04-25 19:51 | 23.92307 | 45.34177 | 29979 ft | 425 kts | 277° |
| 2026-04-25 19:51 | 23.93130 | 45.27803 | 29985 ft | 425 kts | 278° |
| 2026-04-25 19:52 | 23.93962 | 45.21394 | 29985 ft | 425 kts | 278° |
| 2026-04-25 19:52 | 23.94793 | 45.14998 | 29980 ft | 424 kts | 277° |
| 2026-04-25 19:53 | 23.95597 | 45.08617 | 29991 ft | 423 kts | 277° |
| 2026-04-25 19:53 | 23.96410 | 45.02279 | 29987 ft | 422 kts | 277° |
| 2026-04-25 19:54 | 23.97226 | 44.95919 | 29997 ft | 422 kts | 277° |
| 2026-04-25 19:54 | 23.98034 | 44.89562 | 29995 ft | 422 kts | 277° |
| 2026-04-25 19:55 | 23.98837 | 44.83192 | 29996 ft | 422 kts | 277° |
| 2026-04-25 19:55 | 23.99631 | 44.76869 | 30001 ft | 422 kts | 277° |
| 2026-04-25 19:56 | 24.00431 | 44.70501 | 29979 ft | 422 kts | 277° |
| 2026-04-25 19:56 | 24.01228 | 44.64136 | 29992 ft | 422 kts | 277° |
| 2026-04-25 19:57 | 24.02023 | 44.57758 | 30002 ft | 422 kts | 277° |
| 2026-04-25 19:57 | 24.02820 | 44.51396 | 30005 ft | 422 kts | 277° |
| 2026-04-25 19:58 | 24.03611 | 44.45035 | 30012 ft | 422 kts | 277° |
| 2026-04-25 19:58 | 24.04375 | 44.38710 | 30015 ft | 421 kts | 277° |
| 2026-04-25 19:59 | 24.05166 | 44.32357 | 30005 ft | 421 kts | 277° |
| 2026-04-25 19:59 | 24.05952 | 44.26001 | 30007 ft | 421 kts | 277° |
| 2026-04-25 20:00 | 24.06601 | 44.20721 | 30014 ft | 422 kts | 277° |
| 2026-04-25 20:00 | 24.07365 | 44.14344 | 30012 ft | 422 kts | 276° |
| 2026-04-25 20:01 | 24.08647 | 44.03742 | 30025 ft | 422 kts | 277° |
| 2026-04-25 20:01 | 24.09295 | 43.98414 | 30032 ft | 421 kts | 276° |
| 2026-04-25 20:02 | 24.10049 | 43.92099 | 30027 ft | 421 kts | 277° |
| 2026-04-25 20:02 | 24.10819 | 43.85742 | 30027 ft | 421 kts | 277° |
| 2026-04-25 20:03 | 24.11577 | 43.79377 | 30041 ft | 420 kts | 277° |
| 2026-04-25 20:03 | 24.12345 | 43.73033 | 30038 ft | 420 kts | 276° |
| 2026-04-25 20:04 | 24.13091 | 43.66689 | 30043 ft | 420 kts | 276° |
| 2026-04-25 20:04 | 24.13840 | 43.60339 | 30045 ft | 421 kts | 276° |
| 2026-04-25 20:05 | 24.14593 | 43.53966 | 30044 ft | 422 kts | 276° |
| 2026-04-25 20:05 | 24.15338 | 43.47597 | 30043 ft | 422 kts | 276° |
| 2026-04-25 20:06 | 24.16072 | 43.41265 | 30054 ft | 421 kts | 276° |
| 2026-04-25 20:06 | 24.16811 | 43.34892 | 30038 ft | 422 kts | 276° |
| 2026-04-25 20:07 | 24.17556 | 43.28526 | 30043 ft | 422 kts | 276° |
| 2026-04-25 20:07 | 24.18300 | 43.22144 | 30049 ft | 421 kts | 276° |
| 2026-04-25 20:08 | 24.19031 | 43.15815 | 30047 ft | 419 kts | 276° |
| 2026-04-25 20:08 | 24.19760 | 43.09477 | 30045 ft | 419 kts | 276° |
| 2026-04-25 20:09 | 24.20478 | 43.03151 | 30044 ft | 419 kts | 276° |
| 2026-04-25 20:09 | 24.21192 | 42.96882 | 30045 ft | 416 kts | 276° |
| 2026-04-25 20:10 | 24.21910 | 42.90578 | 30036 ft | 417 kts | 276° |
| 2026-04-25 20:10 | 24.22621 | 42.84284 | 30042 ft | 417 kts | 276° |
| 2026-04-25 20:11 | 24.23340 | 42.77979 | 30025 ft | 417 kts | 276° |
| 2026-04-25 20:11 | 24.24035 | 42.71715 | 30039 ft | 418 kts | 276° |
| 2026-04-25 20:12 | 24.24743 | 42.65382 | 30038 ft | 418 kts | 276° |
| 2026-04-25 20:12 | 24.25337 | 42.60088 | 30039 ft | 418 kts | 276° |
| 2026-04-25 20:13 | 24.26154 | 42.52725 | 30032 ft | 419 kts | 276° |
| 2026-04-25 20:13 | 24.26852 | 42.46381 | 30032 ft | 419 kts | 276° |
| 2026-04-25 20:14 | 24.27554 | 42.40053 | 30034 ft | 419 kts | 276° |
| 2026-04-25 20:14 | 24.28241 | 42.33725 | 30027 ft | 417 kts | 276° |
| 2026-04-25 20:15 | 24.28942 | 42.27399 | 30024 ft | 417 kts | 276° |
| 2026-04-25 20:15 | 24.29621 | 42.21122 | 30024 ft | 417 kts | 276° |
| 2026-04-25 20:16 | 24.30304 | 42.14822 | 30025 ft | 415 kts | 276° |
| 2026-04-25 20:16 | 24.30994 | 42.08516 | 30017 ft | 415 kts | 276° |
| 2026-04-25 20:17 | 24.31670 | 42.02229 | 30017 ft | 415 kts | 275° |
| 2026-04-25 20:17 | 24.32334 | 41.95939 | 30022 ft | 415 kts | 275° |
| 2026-04-25 20:18 | 24.32997 | 41.89679 | 30019 ft | 415 kts | 275° |
| 2026-04-25 20:18 | 24.33669 | 41.83379 | 30015 ft | 415 kts | 275° |
| 2026-04-25 20:19 | 24.34339 | 41.77086 | 30006 ft | 415 kts | 275° |
| 2026-04-25 20:19 | 24.34999 | 41.70823 | 30012 ft | 413 kts | 275° |
| 2026-04-25 20:20 | 24.35658 | 41.64565 | 30009 ft | 413 kts | 275° |
| 2026-04-25 20:20 | 24.36311 | 41.58310 | 30019 ft | 413 kts | 275° |
| 2026-04-25 20:21 | 24.36955 | 41.52062 | 30020 ft | 412 kts | 275° |
| 2026-04-25 20:21 | 24.37604 | 41.45824 | 30017 ft | 412 kts | 275° |
| 2026-04-25 20:22 | 24.38031 | 41.41685 | 30016 ft | 412 kts | 275° |
| 2026-04-25 20:22 | 24.38894 | 41.33340 | 30020 ft | 409 kts | 275° |
| 2026-04-25 20:23 | 24.39525 | 41.27183 | 30014 ft | 406 kts | 275° |
| 2026-04-25 20:23 | 24.40155 | 41.21075 | 30010 ft | 406 kts | 275° |
| 2026-04-25 20:24 | 24.40774 | 41.14913 | 30003 ft | 406 kts | 275° |
| 2026-04-25 20:24 | 24.41402 | 41.08781 | 30010 ft | 403 kts | 275° |
| 2026-04-25 20:25 | 24.42026 | 41.02661 | 30008 ft | 403 kts | 275° |
| 2026-04-25 20:25 | 24.42637 | 40.96580 | 30000 ft | 403 kts | 275° |
| 2026-04-25 20:26 | 24.43240 | 40.90458 | 30012 ft | 403 kts | 275° |
| 2026-04-25 20:26 | 24.43845 | 40.84376 | 30001 ft | 401 kts | 275° |
| 2026-04-25 20:27 | 24.44452 | 40.78285 | 29992 ft | 401 kts | 275° |
| 2026-04-25 20:27 | 24.45040 | 40.72241 | 30000 ft | 401 kts | 275° |
| 2026-04-25 20:28 | 24.45644 | 40.66147 | 29992 ft | 401 kts | 275° |
| 2026-04-25 20:28 | 24.46241 | 40.60052 | 29990 ft | 401 kts | 275° |
| 2026-04-25 20:29 | 24.46838 | 40.53959 | 29986 ft | 401 kts | 275° |
| 2026-04-25 20:29 | 24.47419 | 40.47907 | 29982 ft | 401 kts | 275° |
| 2026-04-25 20:30 | 24.48020 | 40.41804 | 29990 ft | 401 kts | 274° |
| 2026-04-25 20:30 | 24.48600 | 40.35709 | 29981 ft | 401 kts | 274° |
| 2026-04-25 20:31 | 24.49166 | 40.29639 | 29980 ft | 401 kts | 274° |
| 2026-04-25 20:31 | 24.49743 | 40.23544 | 29984 ft | 401 kts | 274° |
| 2026-04-25 20:32 | 24.50325 | 40.17434 | 29981 ft | 402 kts | 274° |
| 2026-04-25 20:32 | 24.50901 | 40.11323 | 29975 ft | 402 kts | 274° |
| 2026-04-25 20:33 | 24.51469 | 40.05259 | 29984 ft | 402 kts | 274° |
| 2026-04-25 20:33 | 24.51854 | 40.01178 | 29992 ft | 401 kts | 274° |
| 2026-04-25 20:34 | 24.52610 | 39.93051 | 29989 ft | 401 kts | 274° |
| 2026-04-25 20:34 | 24.53181 | 39.86949 | 29990 ft | 402 kts | 274° |
| 2026-04-25 20:35 | 24.53771 | 39.80875 | 29989 ft | 402 kts | 274° |
| 2026-04-25 20:35 | 24.54341 | 39.74789 | 30001 ft | 400 kts | 274° |
| 2026-04-25 20:36 | 24.55720 | 39.68851 | 29994 ft | 407 kts | 289° |
| 2026-04-25 20:36 | 24.58465 | 39.63340 | 29999 ft | 411 kts | 294° |
| 2026-04-25 20:37 | 24.61343 | 39.57912 | 29984 ft | 410 kts | 294° |
| 2026-04-25 20:37 | 24.64163 | 39.52538 | 29973 ft | 408 kts | 294° |
| 2026-04-25 20:38 | 24.66959 | 39.47080 | 29964 ft | 410 kts | 294° |
| 2026-04-25 20:38 | 24.69803 | 39.41634 | 29960 ft | 412 kts | 294° |
| 2026-04-25 20:39 | 24.72648 | 39.36182 | 29954 ft | 410 kts | 294° |
| 2026-04-25 20:39 | 24.74531 | 39.32579 | 29964 ft | 410 kts | 294° |
| 2026-04-25 20:40 | 24.78322 | 39.25342 | 29953 ft | 410 kts | 294° |
| 2026-04-25 20:40 | 24.81138 | 39.19885 | 29940 ft | 409 kts | 294° |
| 2026-04-25 20:41 | 24.83963 | 39.14445 | 29950 ft | 410 kts | 294° |
| 2026-04-25 20:41 | 24.86801 | 39.09025 | 29955 ft | 409 kts | 294° |
| 2026-04-25 20:42 | 24.89630 | 39.03591 | 29955 ft | 408 kts | 294° |
| 2026-04-25 20:42 | 24.92444 | 38.98159 | 29951 ft | 409 kts | 294° |
| 2026-04-25 20:43 | 24.95256 | 38.92706 | 29950 ft | 409 kts | 294° |
| 2026-04-25 20:43 | 24.98077 | 38.87246 | 29960 ft | 408 kts | 294° |
| 2026-04-25 20:44 | 25.00869 | 38.81807 | 29948 ft | 408 kts | 293° |
| 2026-04-25 20:44 | 25.03630 | 38.76408 | 29943 ft | 406 kts | 294° |
| 2026-04-25 20:45 | 25.06423 | 38.70966 | 29927 ft | 408 kts | 293° |
| 2026-04-25 20:45 | 25.09228 | 38.65535 | 29950 ft | 408 kts | 293° |
| 2026-04-25 20:46 | 25.12037 | 38.60081 | 29954 ft | 409 kts | 293° |
| 2026-04-25 20:46 | 25.14361 | 38.55530 | 29939 ft | 410 kts | 293° |
| 2026-04-25 20:47 | 25.17635 | 38.49144 | 29938 ft | 410 kts | 293° |
| 2026-04-25 20:47 | 25.20437 | 38.43655 | 29936 ft | 410 kts | 293° |
| 2026-04-25 20:48 | 25.22752 | 38.39101 | 29925 ft | 409 kts | 293° |
| 2026-04-25 20:48 | 25.25567 | 38.33631 | 29927 ft | 410 kts | 293° |
| 2026-04-25 20:49 | 25.28362 | 38.28151 | 29914 ft | 409 kts | 293° |
| 2026-04-25 20:49 | 25.31619 | 38.21766 | 29917 ft | 409 kts | 293° |
| 2026-04-25 20:50 | 25.33951 | 38.17158 | 29918 ft | 410 kts | 293° |
| 2026-04-25 20:50 | 25.36734 | 38.11684 | 29920 ft | 411 kts | 293° |
| 2026-04-25 20:51 | 25.39539 | 38.06162 | 29910 ft | 411 kts | 293° |
| 2026-04-25 20:51 | 25.42338 | 38.00641 | 29910 ft | 411 kts | 293° |
| 2026-04-25 20:52 | 25.44661 | 37.96051 | 29935 ft | 411 kts | 293° |
| 2026-04-25 20:52 | 25.47926 | 37.89588 | 29929 ft | 412 kts | 293° |
| 2026-04-25 20:53 | 25.50723 | 37.84035 | 29928 ft | 413 kts | 293° |
| 2026-04-25 20:53 | 25.53520 | 37.78487 | 29927 ft | 412 kts | 292° |
| 2026-04-25 20:54 | 25.56296 | 37.72967 | 29926 ft | 412 kts | 293° |
| 2026-04-25 20:54 | 25.59087 | 37.67430 | 29931 ft | 412 kts | 293° |
| 2026-04-25 20:55 | 25.61875 | 37.61885 | 29931 ft | 412 kts | 292° |
| 2026-04-25 20:55 | 25.64664 | 37.56324 | 29925 ft | 412 kts | 292° |
| 2026-04-25 20:56 | 25.67453 | 37.50763 | 29919 ft | 412 kts | 292° |
| 2026-04-25 20:56 | 25.70217 | 37.45239 | 29924 ft | 413 kts | 292° |
| 2026-04-25 20:57 | 25.73001 | 37.39666 | 29912 ft | 413 kts | 292° |
| 2026-04-25 20:57 | 25.75791 | 37.34079 | 29911 ft | 415 kts | 292° |
| 2026-04-25 20:58 | 25.78595 | 37.28456 | 29894 ft | 415 kts | 292° |
| 2026-04-25 20:58 | 25.81392 | 37.22832 | 29894 ft | 416 kts | 292° |
| 2026-04-25 20:59 | 25.84184 | 37.17223 | 29891 ft | 415 kts | 292° |
| 2026-04-25 20:59 | 25.86960 | 37.11642 | 29885 ft | 415 kts | 292° |
| 2026-04-25 21:00 | 25.89295 | 37.06935 | 29886 ft | 415 kts | 292° |
| 2026-04-25 21:01 | 25.93920 | 36.97593 | 29892 ft | 414 kts | 292° |
| 2026-04-25 21:01 | 25.96697 | 36.91984 | 29882 ft | 413 kts | 292° |
| 2026-04-25 21:02 | 25.99463 | 36.86384 | 29882 ft | 413 kts | 292° |
| 2026-04-25 21:02 | 26.02231 | 36.80773 | 29878 ft | 413 kts | 292° |
| 2026-04-25 21:03 | 26.04974 | 36.75204 | 29878 ft | 413 kts | 292° |
| 2026-04-25 21:03 | 26.07734 | 36.69598 | 29881 ft | 413 kts | 292° |
| 2026-04-25 21:04 | 26.10497 | 36.63978 | 29876 ft | 413 kts | 292° |
| 2026-04-25 21:04 | 26.13255 | 36.58358 | 29876 ft | 413 kts | 292° |
| 2026-04-25 21:05 | 26.16009 | 36.52737 | 29865 ft | 413 kts | 292° |
| 2026-04-25 21:05 | 26.19166 | 36.47380 | 29865 ft | 424 kts | 303° |
| 2026-04-25 21:06 | 26.23288 | 36.42613 | 29885 ft | 427 kts | 306° |
| 2026-04-25 21:06 | 26.27445 | 36.37870 | 29886 ft | 427 kts | 306° |
| 2026-04-25 21:07 | 26.31578 | 36.33114 | 29893 ft | 428 kts | 306° |
| 2026-04-25 21:07 | 26.35717 | 36.28337 | 29881 ft | 428 kts | 306° |
| 2026-04-25 21:08 | 26.39852 | 36.23556 | 29881 ft | 428 kts | 306° |
| 2026-04-25 21:08 | 26.43980 | 36.18775 | 29879 ft | 427 kts | 306° |
| 2026-04-25 21:09 | 26.50148 | 36.11641 | 29876 ft | 427 kts | 306° |
| 2026-04-25 21:09 | 26.54272 | 36.06855 | 29875 ft | 427 kts | 306° |
| 2026-04-25 21:10 | 26.58395 | 36.02063 | 29883 ft | 427 kts | 306° |
| 2026-04-25 21:10 | 26.62492 | 35.97304 | 29881 ft | 427 kts | 306° |
| 2026-04-25 21:11 | 26.66616 | 35.92503 | 29907 ft | 427 kts | 306° |
| 2026-04-25 21:11 | 26.70743 | 35.87700 | 29887 ft | 427 kts | 306° |
| 2026-04-25 21:12 | 26.74862 | 35.82905 | 29892 ft | 427 kts | 306° |
| 2026-04-25 21:12 | 26.78279 | 35.78913 | 29888 ft | 427 kts | 306° |
| 2026-04-25 21:13 | 26.83061 | 35.73322 | 29891 ft | 427 kts | 306° |
| 2026-04-25 21:13 | 26.87172 | 35.68518 | 29894 ft | 427 kts | 306° |
| 2026-04-25 21:14 | 26.91275 | 35.63707 | 29896 ft | 427 kts | 306° |
| 2026-04-25 21:14 | 26.95377 | 35.58891 | 29897 ft | 427 kts | 306° |
| 2026-04-25 21:15 | 26.99487 | 35.54077 | 29900 ft | 427 kts | 306° |
| 2026-04-25 21:15 | 27.03585 | 35.49256 | 29929 ft | 426 kts | 306° |
| 2026-04-25 21:16 | 27.07681 | 35.44437 | 29902 ft | 427 kts | 306° |
| 2026-04-25 21:16 | 27.11781 | 35.39609 | 29897 ft | 427 kts | 306° |
| 2026-04-25 21:17 | 27.15855 | 35.34814 | 29898 ft | 427 kts | 306° |
| 2026-04-25 21:17 | 27.19950 | 35.29979 | 29902 ft | 427 kts | 306° |
| 2026-04-25 21:18 | 27.24049 | 35.25136 | 29902 ft | 427 kts | 306° |
| 2026-04-25 21:18 | 27.28108 | 35.20327 | 29902 ft | 426 kts | 306° |
| 2026-04-25 21:19 | 27.32192 | 35.15494 | 29899 ft | 426 kts | 306° |
| 2026-04-25 21:19 | 27.36274 | 35.10650 | 29898 ft | 426 kts | 306° |
| 2026-04-25 21:20 | 27.38999 | 35.07412 | 29898 ft | 426 kts | 306° |
| 2026-04-25 21:20 | 27.44443 | 35.00944 | 29901 ft | 428 kts | 306° |
| 2026-04-25 21:21 | 27.48517 | 34.96098 | 29899 ft | 427 kts | 306° |
| 2026-04-25 21:21 | 27.52705 | 34.91310 | 29891 ft | 431 kts | 309° |
| 2026-04-25 21:22 | 27.57088 | 34.86682 | 29887 ft | 431 kts | 309° |
| 2026-04-25 21:22 | 27.61461 | 34.82063 | 29880 ft | 431 kts | 309° |
| 2026-04-25 21:23 | 27.65811 | 34.77465 | 29882 ft | 431 kts | 309° |
| 2026-04-25 21:23 | 27.70181 | 34.72845 | 29895 ft | 431 kts | 309° |
| 2026-04-25 21:24 | 27.74553 | 34.68208 | 29883 ft | 431 kts | 309° |
| 2026-04-25 21:24 | 27.78924 | 34.63565 | 29890 ft | 432 kts | 310° |
| 2026-04-25 21:25 | 27.83305 | 34.58914 | 29889 ft | 432 kts | 310° |
| 2026-04-25 21:25 | 27.87690 | 34.54256 | 29889 ft | 432 kts | 310° |
| 2026-04-25 21:26 | 27.92047 | 34.49620 | 29894 ft | 432 kts | 310° |
| 2026-04-25 21:26 | 27.96423 | 34.44957 | 29900 ft | 432 kts | 309° |
| 2026-04-25 21:27 | 28.00660 | 34.40166 | 29901 ft | 426 kts | 304° |
| 2026-04-25 21:27 | 28.04411 | 34.34982 | 29901 ft | 425 kts | 303° |
| 2026-04-25 21:28 | 28.08149 | 34.29804 | 29892 ft | 425 kts | 303° |
| 2026-04-25 21:28 | 28.11909 | 34.24605 | 29903 ft | 425 kts | 303° |
| 2026-04-25 21:29 | 28.15650 | 34.19413 | 29945 ft | 426 kts | 303° |
| 2026-04-25 21:29 | 28.19403 | 34.14209 | 29924 ft | 427 kts | 303° |
| 2026-04-25 21:30 | 28.23149 | 34.09000 | 29930 ft | 426 kts | 303° |
| 2026-04-25 21:30 | 28.26264 | 34.04666 | 29959 ft | 428 kts | 303° |
| 2026-04-25 21:31 | 28.30640 | 33.98579 | 29941 ft | 427 kts | 303° |
| 2026-04-25 21:31 | 28.34391 | 33.93344 | 29952 ft | 428 kts | 303° |
| 2026-04-25 21:32 | 28.38165 | 33.88077 | 29939 ft | 430 kts | 303° |
| 2026-04-25 21:32 | 28.41935 | 33.82805 | 29936 ft | 430 kts | 303° |
| 2026-04-25 21:33 | 28.45705 | 33.77529 | 29937 ft | 429 kts | 303° |
| 2026-04-25 21:33 | 28.49468 | 33.72257 | 29956 ft | 429 kts | 303° |
| 2026-04-25 21:34 | 28.53211 | 33.67002 | 29959 ft | 430 kts | 303° |
| 2026-04-25 21:34 | 28.56339 | 33.62606 | 29957 ft | 431 kts | 303° |
| 2026-04-25 21:35 | 28.60115 | 33.57294 | 29950 ft | 431 kts | 303° |
| 2026-04-25 21:35 | 28.63878 | 33.51991 | 29942 ft | 431 kts | 303° |
| 2026-04-25 21:36 | 28.68261 | 33.45818 | 29916 ft | 431 kts | 303° |
| 2026-04-25 21:36 | 28.71386 | 33.41399 | 29930 ft | 431 kts | 303° |
| 2026-04-25 21:37 | 28.74534 | 33.36950 | 29921 ft | 430 kts | 303° |
| 2026-04-25 21:37 | 28.78897 | 33.30775 | 29916 ft | 430 kts | 303° |
| 2026-04-25 21:38 | 28.82651 | 33.25457 | 29907 ft | 431 kts | 303° |
| 2026-04-25 21:38 | 28.86405 | 33.20130 | 29908 ft | 430 kts | 303° |
| 2026-04-25 21:39 | 28.90153 | 33.14803 | 29910 ft | 430 kts | 303° |
| 2026-04-25 21:39 | 28.93900 | 33.09476 | 29895 ft | 430 kts | 303° |
| 2026-04-25 21:40 | 28.97644 | 33.04139 | 29886 ft | 430 kts | 303° |
| 2026-04-25 21:40 | 29.01367 | 32.98830 | 29895 ft | 430 kts | 303° |
| 2026-04-25 21:41 | 29.05106 | 32.93494 | 29888 ft | 430 kts | 303° |
| 2026-04-25 21:41 | 29.08848 | 32.88150 | 29886 ft | 430 kts | 303° |
| 2026-04-25 21:42 | 29.12593 | 32.82780 | 29887 ft | 431 kts | 303° |
| 2026-04-25 21:42 | 29.16339 | 32.77408 | 29889 ft | 431 kts | 303° |
| 2026-04-25 21:43 | 29.20073 | 32.72047 | 29889 ft | 431 kts | 303° |
| 2026-04-25 21:43 | 29.23814 | 32.66670 | 29881 ft | 431 kts | 303° |
| 2026-04-25 21:44 | 29.27524 | 32.61328 | 29901 ft | 431 kts | 303° |
| 2026-04-25 21:45 | 29.33117 | 32.53219 | 29890 ft | 432 kts | 303° |
| 2026-04-25 21:45 | 29.36844 | 32.47787 | 29888 ft | 434 kts | 303° |
| 2026-04-25 21:46 | 29.40575 | 32.42340 | 29885 ft | 434 kts | 303° |
| 2026-04-25 21:46 | 29.44278 | 32.36928 | 29891 ft | 434 kts | 303° |
| 2026-04-25 21:47 | 29.48003 | 32.31473 | 29903 ft | 434 kts | 303° |
| 2026-04-25 21:47 | 29.51732 | 32.26016 | 29892 ft | 434 kts | 303° |
| 2026-04-25 21:48 | 29.55457 | 32.20547 | 29900 ft | 434 kts | 303° |
| 2026-04-25 21:48 | 29.59179 | 32.15080 | 29904 ft | 434 kts | 303° |
| 2026-04-25 21:49 | 29.62909 | 32.09596 | 29892 ft | 434 kts | 303° |
| 2026-04-25 21:49 | 29.66608 | 32.04119 | 29902 ft | 431 kts | 303° |
| 2026-04-25 21:50 | 29.70314 | 31.98669 | 29888 ft | 432 kts | 303° |
| 2026-04-25 21:50 | 29.73986 | 31.93259 | 29890 ft | 432 kts | 303° |
| 2026-04-25 21:51 | 29.77676 | 31.87798 | 29896 ft | 431 kts | 303° |
| 2026-04-25 21:51 | 29.81256 | 31.82270 | 29892 ft | 430 kts | 302° |
| 2026-04-25 21:52 | 29.84829 | 31.76763 | 29895 ft | 427 kts | 302° |
| 2026-04-25 21:52 | 29.88385 | 31.71276 | 29888 ft | 427 kts | 302° |
| 2026-04-25 21:53 | 29.91928 | 31.65785 | 29893 ft | 427 kts | 301° |
| 2026-04-25 21:53 | 29.95440 | 31.60326 | 29896 ft | 427 kts | 301° |
| 2026-04-25 21:54 | 29.98975 | 31.54815 | 29900 ft | 427 kts | 302° |
| 2026-04-25 21:54 | 30.02502 | 31.49338 | 29929 ft | 421 kts | 301° |
| 2026-04-25 21:55 | 30.06065 | 31.43938 | 29911 ft | 426 kts | 305° |
| 2026-04-25 21:55 | 30.10773 | 31.39609 | 29904 ft | 444 kts | 324° |
| 2026-04-25 21:55 | 30.13654 | 31.38213 | 29927 ft | 455 kts | 335° |
| 2026-04-25 21:56 | 30.16776 | 31.37404 | 29914 ft | 464 kts | 342° |
| 2026-04-25 21:56 | 30.23143 | 31.36294 | 29904 ft | 466 kts | 343° |
| 2026-04-25 21:57 | 30.29543 | 31.35152 | 29873 ft | 465 kts | 343° |
| 2026-04-25 21:57 | 30.35930 | 31.33977 | 29876 ft | 465 kts | 343° |
| 2026-04-25 21:58 | 30.42328 | 31.32801 | 29895 ft | 467 kts | 343° |
| 2026-04-25 21:58 | 30.48751 | 31.31625 | 29879 ft | 467 kts | 343° |
| 2026-04-25 21:59 | 30.55176 | 31.30443 | 29876 ft | 467 kts | 342° |
| 2026-04-25 21:59 | 30.61603 | 31.29252 | 29875 ft | 467 kts | 342° |
| 2026-04-25 22:00 | 30.71215 | 31.27475 | 29883 ft | 468 kts | 342° |
| 2026-04-25 22:00 | 30.77654 | 31.26288 | 29881 ft | 468 kts | 342° |
| 2026-04-25 22:01 | 30.84091 | 31.25095 | 29879 ft | 468 kts | 342° |
| 2026-04-25 22:01 | 30.89437 | 31.24098 | 29918 ft | 467 kts | 342° |
| 2026-04-25 22:02 | 30.96973 | 31.22698 | 29886 ft | 470 kts | 342° |
| 2026-04-25 22:02 | 31.03448 | 31.21495 | 29885 ft | 470 kts | 342° |
| 2026-04-25 22:03 | 31.09865 | 31.20301 | 29885 ft | 470 kts | 342° |
| 2026-04-25 22:03 | 31.16325 | 31.19097 | 29908 ft | 470 kts | 342° |
| 2026-04-25 22:04 | 31.22808 | 31.17886 | 29893 ft | 473 kts | 342° |
| 2026-04-25 22:04 | 31.29309 | 31.16671 | 29891 ft | 473 kts | 342° |
| 2026-04-25 22:05 | 31.35812 | 31.15455 | 29892 ft | 473 kts | 342° |
| 2026-04-25 22:05 | 31.42318 | 31.14235 | 29905 ft | 474 kts | 343° |
| 2026-04-25 22:06 | 31.48839 | 31.13010 | 29896 ft | 475 kts | 343° |
| 2026-04-25 22:06 | 31.55371 | 31.11981 | 29895 ft | 479 kts | 346° |
| 2026-04-25 22:07 | 31.60933 | 31.11378 | 29896 ft | 479 kts | 347° |
| 2026-04-25 22:07 | 31.68677 | 31.10582 | 29909 ft | 481 kts | 347° |
| 2026-04-25 22:08 | 31.75351 | 31.09869 | 29904 ft | 481 kts | 347° |
| 2026-04-25 22:08 | 31.81984 | 31.09161 | 29903 ft | 481 kts | 347° |
| 2026-04-25 22:09 | 31.88656 | 31.08448 | 29907 ft | 481 kts | 347° |
| 2026-04-25 22:09 | 31.95345 | 31.07849 | 29907 ft | 487 kts | 353° |
| 2026-04-25 22:10 | 31.98751 | 31.08260 | 29905 ft | 499 kts | 5° |
| 2026-04-25 22:10 | 32.02093 | 31.09511 | 29910 ft | 510 kts | 18° |
| 2026-04-25 22:10 | 32.05194 | 31.11607 | 29912 ft | 519 kts | 32° |
| 2026-04-25 22:10 | 32.07883 | 31.14478 | 29912 ft | 526 kts | 45° |
| 2026-04-25 22:11 | 32.12177 | 31.21504 | 29915 ft | 526 kts | 54° |
| 2026-04-25 22:11 | 32.16358 | 31.28609 | 29900 ft | 526 kts | 53° |
| 2026-04-25 22:12 | 32.20678 | 31.35520 | 29908 ft | 526 kts | 53° |
| 2026-04-25 22:12 | 32.24068 | 31.41487 | 29902 ft | 526 kts | 54° |
| 2026-04-25 22:13 | 32.28917 | 31.49810 | 29907 ft | 525 kts | 54° |
| 2026-04-25 22:13 | 32.33110 | 31.56908 | 29894 ft | 526 kts | 53° |
| 2026-04-25 22:14 | 32.37273 | 31.63976 | 29896 ft | 527 kts | 54° |
| 2026-04-25 22:14 | 32.41448 | 31.71083 | 29896 ft | 527 kts | 54° |
| 2026-04-25 22:15 | 32.45617 | 31.78192 | 29900 ft | 524 kts | 54° |
| 2026-04-25 22:16 | 32.51869 | 31.88883 | 29884 ft | 526 kts | 54° |
| 2026-04-25 22:16 | 32.56032 | 31.96017 | 29888 ft | 526 kts | 54° |
| 2026-04-25 22:17 | 32.60166 | 32.03116 | 29901 ft | 524 kts | 54° |
| 2026-04-25 22:17 | 32.64312 | 32.10248 | 29869 ft | 525 kts | 54° |
| 2026-04-25 22:18 | 32.68478 | 32.17389 | 29879 ft | 525 kts | 54° |
| 2026-04-25 22:18 | 32.72637 | 32.24530 | 29881 ft | 525 kts | 54° |
| 2026-04-25 22:19 | 32.76816 | 32.31565 | 29884 ft | 523 kts | 53° |
| 2026-04-25 22:19 | 32.81048 | 32.38613 | 29872 ft | 523 kts | 52° |
| 2026-04-25 22:20 | 32.86033 | 32.44867 | 29880 ft | 521 kts | 41° |
| 2026-04-25 22:20 | 32.91284 | 32.50829 | 29897 ft | 520 kts | 42° |
| 2026-04-25 22:21 | 32.96450 | 32.56791 | 29884 ft | 520 kts | 42° |
| 2026-04-25 22:21 | 33.00795 | 32.61833 | 29882 ft | 520 kts | 43° |
| 2026-04-25 22:22 | 33.05957 | 32.67830 | 29883 ft | 522 kts | 42° |
| 2026-04-25 22:22 | 33.11134 | 32.73853 | 29895 ft | 520 kts | 43° |
| 2026-04-25 22:23 | 33.16314 | 32.79886 | 29889 ft | 520 kts | 42° |
| 2026-04-25 22:23 | 33.21646 | 32.85710 | 29895 ft | 520 kts | 43° |
| 2026-04-25 22:24 | 33.26664 | 32.91910 | 29888 ft | 519 kts | 44° |
| 2026-04-25 22:24 | 33.31779 | 32.97995 | 29899 ft | 519 kts | 43° |
| 2026-04-25 22:25 | 33.36939 | 33.04038 | 29901 ft | 519 kts | 43° |
| 2026-04-25 22:25 | 33.42049 | 33.10044 | 29919 ft | 514 kts | 43° |
| 2026-04-25 22:26 | 33.47161 | 33.16066 | 29879 ft | 515 kts | 43° |
| 2026-04-25 22:26 | 33.52285 | 33.22111 | 29903 ft | 517 kts | 43° |
| 2026-04-25 22:27 | 33.57418 | 33.28176 | 29905 ft | 518 kts | 43° |
| 2026-04-25 22:27 | 33.62547 | 33.34250 | 29905 ft | 517 kts | 43° |
| 2026-04-25 22:28 | 33.67651 | 33.40306 | 29905 ft | 515 kts | 43° |
| 2026-04-25 22:28 | 33.72742 | 33.46356 | 29928 ft | 513 kts | 43° |
| 2026-04-25 22:29 | 33.77821 | 33.52400 | 29904 ft | 514 kts | 43° |
| 2026-04-25 22:29 | 33.82858 | 33.58420 | 29903 ft | 514 kts | 44° |
| 2026-04-25 22:30 | 33.90202 | 33.67837 | 29919 ft | 510 kts | 46° |
| 2026-04-25 22:30 | 33.94244 | 33.73045 | 29904 ft | 513 kts | 46° |
| 2026-04-25 22:31 | 34.00097 | 33.80218 | 29906 ft | 513 kts | 44° |
| 2026-04-25 22:31 | 34.05022 | 33.86422 | 29914 ft | 511 kts | 46° |
| 2026-04-25 22:32 | 34.09678 | 33.92911 | 29906 ft | 510 kts | 47° |
| 2026-04-25 22:32 | 34.14636 | 33.99026 | 29902 ft | 510 kts | 44° |
| 2026-04-25 22:33 | 34.19536 | 34.05235 | 29924 ft | 511 kts | 46° |
| 2026-04-25 22:33 | 34.24325 | 34.11479 | 29913 ft | 508 kts | 46° |
| 2026-04-25 22:34 | 34.29131 | 34.17754 | 29915 ft | 508 kts | 46° |
| 2026-04-25 22:34 | 34.33925 | 34.24018 | 29329 ft | 506 kts | 46° |
| 2026-04-25 22:35 | 34.36336 | 34.27135 | 28881 ft | 504 kts | 47° |
| 2026-04-25 22:35 | 34.38445 | 34.30484 | 27727 ft | 500 kts | 59° |
| 2026-04-25 22:35 | 34.39863 | 34.34249 | 26381 ft | 497 kts | 73° |
| 2026-04-25 22:35 | 34.40541 | 34.38329 | 25051 ft | 492 kts | 87° |
| 2026-04-25 22:36 | 34.40460 | 34.42428 | 23956 ft | 482 kts | 100° |
| 2026-04-25 22:36 | 34.39695 | 34.46325 | 22905 ft | 472 kts | 112° |
| 2026-04-25 22:36 | 34.38530 | 34.50041 | 22033 ft | 472 kts | 113° |
| 2026-04-25 22:36 | 34.37410 | 34.53768 | 21496 ft | 469 kts | 112° |
| 2026-04-25 22:37 | 34.36309 | 34.57446 | 20779 ft | 460 kts | 112° |
| 2026-04-25 22:37 | 34.35209 | 34.61047 | 19934 ft | 452 kts | 112° |
| 2026-04-25 22:37 | 34.34118 | 34.64582 | 19105 ft | 444 kts | 112° |
| 2026-04-25 22:37 | 34.33049 | 34.68055 | 18312 ft | 438 kts | 112° |
| 2026-04-25 22:38 | 34.31985 | 34.71505 | 17359 ft | 436 kts | 112° |
| 2026-04-25 22:38 | 34.30927 | 34.74921 | 16532 ft | 431 kts | 112° |
| 2026-04-25 22:38 | 34.29883 | 34.78299 | 15810 ft | 425 kts | 112° |
| 2026-04-25 22:38 | 34.28854 | 34.81623 | 15114 ft | 420 kts | 112° |
| 2026-04-25 22:39 | 34.27826 | 34.84930 | 14527 ft | 422 kts | 113° |
| 2026-04-25 22:39 | 34.26804 | 34.88216 | 14012 ft | 413 kts | 113° |
| 2026-04-25 22:39 | 34.25816 | 34.91390 | 13404 ft | 406 kts | 113° |
| 2026-04-25 22:39 | 34.24823 | 34.94574 | 12645 ft | 402 kts | 113° |
| 2026-04-25 22:40 | 34.23839 | 34.97720 | 11954 ft | 394 kts | 112° |
| 2026-04-25 22:40 | 34.22894 | 35.00751 | 11557 ft | 376 kts | 112° |
| 2026-04-25 22:40 | 34.21993 | 35.03634 | 11273 ft | 357 kts | 112° |
| 2026-04-25 22:40 | 34.21136 | 35.06375 | 11017 ft | 340 kts | 113° |
| 2026-04-25 22:41 | 34.20318 | 35.08984 | 10745 ft | 325 kts | 113° |
| 2026-04-25 22:41 | 34.19533 | 35.11483 | 10486 ft | 311 kts | 113° |
| 2026-04-25 22:41 | 34.18781 | 35.13878 | 10171 ft | 302 kts | 113° |
| 2026-04-25 22:41 | 34.18036 | 35.16244 | 9644 ft | 301 kts | 113° |
| 2026-04-25 22:42 | 34.17290 | 35.18610 | 9104 ft | 299 kts | 113° |
| 2026-04-25 22:42 | 34.16555 | 35.20945 | 8609 ft | 296 kts | 113° |
| 2026-04-25 22:42 | 34.15826 | 35.23258 | 8132 ft | 293 kts | 113° |
| 2026-04-25 22:42 | 34.15107 | 35.25543 | 7709 ft | 288 kts | 114° |
| 2026-04-25 22:43 | 34.14409 | 35.27757 | 7308 ft | 283 kts | 114° |
| 2026-04-25 22:43 | 34.13711 | 35.29965 | 6894 ft | 281 kts | 114° |
| 2026-04-25 22:43 | 34.13011 | 35.32178 | 6480 ft | 282 kts | 114° |
| 2026-04-25 22:43 | 34.12315 | 35.34379 | 6062 ft | 279 kts | 114° |
| 2026-04-25 22:44 | 34.11629 | 35.36548 | 5649 ft | 275 kts | 113° |
| 2026-04-25 22:44 | 34.10944 | 35.38707 | 5260 ft | 275 kts | 113° |
| 2026-04-25 22:44 | 34.10261 | 35.40862 | 4878 ft | 275 kts | 112° |
| 2026-04-25 22:44 | 34.09576 | 35.43021 | 4469 ft | 276 kts | 112° |
| 2026-04-25 22:45 | 34.08895 | 35.45170 | 4098 ft | 271 kts | 112° |
| 2026-04-25 22:45 | 34.08237 | 35.47245 | 3972 ft | 256 kts | 112° |
| 2026-04-25 22:45 | 34.07623 | 35.49180 | 3943 ft | 239 kts | 112° |
| 2026-04-25 22:45 | 34.07052 | 35.50982 | 3955 ft | 221 kts | 113° |
| 2026-04-25 22:46 | 34.06521 | 35.52641 | 3952 ft | 204 kts | 115° |
| 2026-04-25 22:46 | 34.05736 | 35.54014 | 3953 ft | 200 kts | 143° |
| 2026-04-25 22:46 | 34.04479 | 35.54668 | 3968 ft | 200 kts | 172° |
| 2026-04-25 22:46 | 34.03083 | 35.54795 | 3981 ft | 202 kts | 177° |
| 2026-04-25 22:47 | 34.01680 | 35.54892 | 3987 ft | 201 kts | 176° |
| 2026-04-25 22:47 | 34.00281 | 35.55014 | 3990 ft | 201 kts | 176° |
| 2026-04-25 22:47 | 33.98900 | 35.55146 | 3836 ft | 198 kts | 175° |
| 2026-04-25 22:47 | 33.97531 | 35.55284 | 3547 ft | 198 kts | 175° |
| 2026-04-25 22:48 | 33.96154 | 35.55423 | 3249 ft | 198 kts | 175° |
| 2026-04-25 22:48 | 33.94795 | 35.55563 | 2944 ft | 198 kts | 175° |
| 2026-04-25 22:48 | 33.93422 | 35.55703 | 2667 ft | 198 kts | 174° |
| 2026-04-25 22:48 | 33.92052 | 35.55649 | 2349 ft | 198 kts | 193° |
| 2026-04-25 22:49 | 33.90764 | 35.55034 | 2035 ft | 200 kts | 202° |
| 2026-04-25 22:49 | 33.89489 | 35.54350 | 1728 ft | 201 kts | 201° |
| 2026-04-25 22:49 | 33.88250 | 35.53695 | 1551 ft | 178 kts | 203° |
| 2026-04-25 22:49 | 33.87278 | 35.53116 | 1300 ft | 136 kts | 203° |
| 2026-04-25 22:50 | 33.86441 | 35.52658 | 1018 ft | 128 kts | 201° |
| 2026-04-25 22:50 | 33.85642 | 35.52240 | 800 ft | 124 kts | 201° |
| 2026-04-25 22:50 | 33.84853 | 35.51818 | 688 ft | 125 kts | 201° |
| 2026-04-25 22:50 | 33.84084 | 35.51338 | 582 ft | 124 kts | 207° |
| 2026-04-25 22:51 | 33.83341 | 35.50796 | 350 ft | 124 kts | 208° |
| 2026-04-25 22:51 | 33.82617 | 35.50251 | 191 ft | 124 kts | 208° |
| 2026-04-25 22:51 | 33.81892 | 35.49694 | 62 ft | 124 kts | 210° |
| 2026-04-25 22:51 | 33.81196 | 35.49153 | 22 ft | 100 kts | 211° |
| 2026-04-25 22:52 | 33.80870 | 35.48903 | 20 ft | 13 kts | 212° |
| 2026-04-25 22:52 | 33.80801 | 35.48849 | 23 ft | 16 kts | 214° |
| 2026-04-25 22:52 | 33.80699 | 35.48747 | 22 ft | 22 kts | 226° |
| 2026-04-25 22:52 | 33.80634 | 35.48637 | 22 ft | 27 kts | 240° |
| 2026-04-25 22:53 | 33.80561 | 35.48464 | 21 ft | 17 kts | 245° |
| 2026-04-25 22:53 | 33.80589 | 35.48342 | 22 ft | 20 kts | 352° |
| 2026-04-25 22:53 | 33.80729 | 35.48370 | 22 ft | 23 kts | 40° |
| 2026-04-25 22:53 | 33.80860 | 35.48501 | 22 ft | 25 kts | 40° |
| 2026-04-25 22:54 | 33.81017 | 35.48616 | 23 ft | 28 kts | 36° |
| 2026-04-25 22:54 | 33.81180 | 35.48754 | 22 ft | 30 kts | 34° |
| 2026-04-25 22:54 | 33.81353 | 35.48902 | 18 ft | 31 kts | 36° |
| 2026-04-25 22:54 | 33.81532 | 35.49057 | 24 ft | 29 kts | 36° |
| 2026-04-25 22:55 | 33.81718 | 35.49063 | 22 ft | 29 kts | 355° |
| 2026-04-25 22:55 | 33.81927 | 35.49050 | 22 ft | 31 kts | 357° |
| 2026-04-25 22:55 | 33.82099 | 35.49038 | 22 ft | 18 kts | 356° |
| 2026-04-25 22:55 | 33.82225 | 35.49055 | 21 ft | 21 kts | 65° |
| 2026-04-25 22:56 | 33.82218 | 35.49164 | 23 ft | 7 kts | 96° |
| 2026-04-25 22:56 | 33.82234 | 35.49235 | 22 ft | 11 kts | 37° |
| 2026-04-25 22:56 | 33.82261 | 35.49281 | 22 ft | 8 kts | 79° |
| 2026-04-25 22:56 | 33.82264 | 35.49308 | 22 ft | 0 kts | 85° |
| 2026-04-25 22:57 | 33.82264 | 35.49309 | 22 ft | 1 kts | 85° |
| 2026-04-25 22:57 | 33.82264 | 35.49314 | 22 ft | 0 kts | 85° |